sensor_id;sensor_type;location;lat;lon;timestamp;P1;durP1;ratioP1;P2;durP2;ratioP2
11447;SDS011;43755;49.736;8.734;2023-03-14T00:00:53;1.30;;;1.20;;
11447;SDS011;43755;49.736;8.734;2023-03-14T00:02:55;1.23;;;1.13;;
11447;SDS011;43755;49.736;8.734;2023-03-14T00:04:56;2.13;;;0.90;;
11447;SDS011;43755;49.736;8.734;2023-03-14T00:06:57;1.35;;;1.08;;
11447;SDS011;43755;49.736;8.734;2023-03-14T00:09:00;1.25;;;0.93;;
11447;SDS011;43755;49.736;8.734;2023-03-14T00:11:06;2.30;;;1.10;;
11447;SDS011;43755;49.736;8.734;2023-03-14T00:13:08;1.70;;;0.90;;
11447;SDS011;43755;49.736;8.734;2023-03-14T00:15:10;2.25;;;1.45;;
11447;SDS011;43755;49.736;8.734;2023-03-14T00:17:11;1.77;;;1.20;;
11447;SDS011;43755;49.736;8.734;2023-03-14T00:19:13;1.00;;;0.90;;
11447;SDS011;43755;49.736;8.734;2023-03-14T00:21:15;1.63;;;1.33;;
11447;SDS011;43755;49.736;8.734;2023-03-14T00:23:16;1.80;;;0.88;;
11447;SDS011;43755;49.736;8.734;2023-03-14T00:25:19;1.33;;;1.20;;
11447;SDS011;43755;49.736;8.734;2023-03-14T00:27:21;1.40;;;1.10;;
11447;SDS011;43755;49.736;8.734;2023-03-14T00:29:22;0.98;;;0.93;;
11447;SDS011;43755;49.736;8.734;2023-03-14T00:31:23;0.85;;;0.85;;
11447;SDS011;43755;49.736;8.734;2023-03-14T00:33:25;1.27;;;0.98;;
11447;SDS011;43755;49.736;8.734;2023-03-14T00:35:26;1.15;;;0.82;;
11447;SDS011;43755;49.736;8.734;2023-03-14T00:37:28;0.90;;;0.90;;
11447;SDS011;43755;49.736;8.734;2023-03-14T00:39:29;1.08;;;0.90;;
11447;SDS011;43755;49.736;8.734;2023-03-14T00:41:32;1.55;;;0.90;;
11447;SDS011;43755;49.736;8.734;2023-03-14T00:43:33;2.47;;;1.25;;
11447;SDS011;43755;49.736;8.734;2023-03-14T00:45:35;1.17;;;1.05;;
11447;SDS011;43755;49.736;8.734;2023-03-14T00:47:36;1.30;;;1.20;;
11447;SDS011;43755;49.736;8.734;2023-03-14T00:49:37;1.15;;;1.13;;
11447;SDS011;43755;49.736;8.734;2023-03-14T00:51:39;2.60;;;1.10;;
11447;SDS011;43755;49.736;8.734;2023-03-14T00:53:41;1.00;;;1.00;;
11447;SDS011;43755;49.736;8.734;2023-03-14T00:55:43;1.27;;;0.73;;
11447;SDS011;43755;49.736;8.734;2023-03-14T00:57:46;2.38;;;1.30;;
11447;SDS011;43755;49.736;8.734;2023-03-14T00:59:47;1.58;;;1.00;;
11447;SDS011;43755;49.736;8.734;2023-03-14T01:01:49;3.58;;;1.15;;
11447;SDS011;43755;49.736;8.734;2023-03-14T01:03:50;1.00;;;0.90;;
11447;SDS011;43755;49.736;8.734;2023-03-14T01:05:53;1.80;;;1.27;;
11447;SDS011;43755;49.736;8.734;2023-03-14T01:07:54;1.10;;;1.00;;
11447;SDS011;43755;49.736;8.734;2023-03-14T01:09:55;2.22;;;1.10;;
11447;SDS011;43755;49.736;8.734;2023-03-14T01:11:57;3.55;;;1.20;;
11447;SDS011;43755;49.736;8.734;2023-03-14T01:14:00;3.22;;;1.30;;
11447;SDS011;43755;49.736;8.734;2023-03-14T01:16:02;4.30;;;1.55;;
11447;SDS011;43755;49.736;8.734;2023-03-14T01:18:05;2.13;;;1.27;;
11447;SDS011;43755;49.736;8.734;2023-03-14T01:20:07;3.53;;;1.30;;
11447;SDS011;43755;49.736;8.734;2023-03-14T01:22:10;2.10;;;1.08;;
11447;SDS011;43755;49.736;8.734;2023-03-14T01:24:12;1.90;;;1.08;;
11447;SDS011;43755;49.736;8.734;2023-03-14T01:26:14;1.20;;;1.10;;
11447;SDS011;43755;49.736;8.734;2023-03-14T01:28:18;1.98;;;1.23;;
11447;SDS011;43755;49.736;8.734;2023-03-14T01:30:21;1.98;;;1.02;;
11447;SDS011;43755;49.736;8.734;2023-03-14T01:32:22;2.65;;;1.30;;
11447;SDS011;43755;49.736;8.734;2023-03-14T01:34:25;1.65;;;1.25;;
11447;SDS011;43755;49.736;8.734;2023-03-14T01:36:29;1.35;;;1.10;;
11447;SDS011;43755;49.736;8.734;2023-03-14T01:38:31;1.25;;;1.00;;
11447;SDS011;43755;49.736;8.734;2023-03-14T01:40:33;3.75;;;1.23;;
11447;SDS011;43755;49.736;8.734;2023-03-14T01:42:44;3.78;;;1.40;;
11447;SDS011;43755;49.736;8.734;2023-03-14T01:44:47;2.20;;;1.10;;
11447;SDS011;43755;49.736;8.734;2023-03-14T01:46:52;1.15;;;1.00;;
11447;SDS011;43755;49.736;8.734;2023-03-14T01:48:55;1.45;;;1.20;;
11447;SDS011;43755;49.736;8.734;2023-03-14T01:51:09;1.17;;;1.02;;
11447;SDS011;43755;49.736;8.734;2023-03-14T01:53:15;2.03;;;1.40;;
11447;SDS011;43755;49.736;8.734;2023-03-14T01:55:18;2.00;;;1.20;;
11447;SDS011;43755;49.736;8.734;2023-03-14T01:57:23;2.05;;;1.00;;
11447;SDS011;43755;49.736;8.734;2023-03-14T01:59:31;2.03;;;1.05;;
11447;SDS011;43755;49.736;8.734;2023-03-14T02:01:33;2.63;;;1.20;;
11447;SDS011;43755;49.736;8.734;2023-03-14T02:03:38;1.58;;;1.20;;
11447;SDS011;43755;49.736;8.734;2023-03-14T02:05:46;1.65;;;1.30;;
11447;SDS011;43755;49.736;8.734;2023-03-14T02:07:49;3.67;;;1.25;;
11447;SDS011;43755;49.736;8.734;2023-03-14T02:09:53;2.83;;;1.17;;
11447;SDS011;43755;49.736;8.734;2023-03-14T02:11:57;1.40;;;1.10;;
11447;SDS011;43755;49.736;8.734;2023-03-14T02:13:59;2.67;;;1.30;;
11447;SDS011;43755;49.736;8.734;2023-03-14T02:16:02;4.03;;;1.48;;
11447;SDS011;43755;49.736;8.734;2023-03-14T02:18:04;3.85;;;1.58;;
11447;SDS011;43755;49.736;8.734;2023-03-14T02:20:16;2.35;;;1.48;;
11447;SDS011;43755;49.736;8.734;2023-03-14T02:22:27;2.60;;;1.45;;
11447;SDS011;43755;49.736;8.734;2023-03-14T02:24:31;2.38;;;1.20;;
11447;SDS011;43755;49.736;8.734;2023-03-14T02:26:40;4.60;;;1.30;;
11447;SDS011;43755;49.736;8.734;2023-03-14T02:28:46;5.03;;;1.65;;
11447;SDS011;43755;49.736;8.734;2023-03-14T02:30:48;1.60;;;1.50;;
11447;SDS011;43755;49.736;8.734;2023-03-14T02:32:51;3.70;;;1.38;;
11447;SDS011;43755;49.736;8.734;2023-03-14T02:35:00;3.60;;;1.40;;
11447;SDS011;43755;49.736;8.734;2023-03-14T02:37:06;2.88;;;1.30;;
11447;SDS011;43755;49.736;8.734;2023-03-14T02:39:09;2.70;;;1.40;;
11447;SDS011;43755;49.736;8.734;2023-03-14T02:41:15;1.63;;;1.48;;
11447;SDS011;43755;49.736;8.734;2023-03-14T02:43:17;5.43;;;1.67;;
11447;SDS011;43755;49.736;8.734;2023-03-14T02:45:39;4.63;;;1.17;;
11447;SDS011;43755;49.736;8.734;2023-03-14T02:47:46;2.70;;;1.50;;
11447;SDS011;43755;49.736;8.734;2023-03-14T02:49:51;2.63;;;1.70;;
11447;SDS011;43755;49.736;8.734;2023-03-14T02:51:54;1.88;;;1.30;;
11447;SDS011;43755;49.736;8.734;2023-03-14T02:53:56;3.80;;;1.50;;
11447;SDS011;43755;49.736;8.734;2023-03-14T02:55:57;3.92;;;1.52;;
11447;SDS011;43755;49.736;8.734;2023-03-14T02:57:59;5.32;;;1.90;;
11447;SDS011;43755;49.736;8.734;2023-03-14T03:00:00;2.22;;;1.30;;
11447;SDS011;43755;49.736;8.734;2023-03-14T03:02:04;3.17;;;1.25;;
11447;SDS011;43755;49.736;8.734;2023-03-14T03:04:06;2.50;;;1.20;;
11447;SDS011;43755;49.736;8.734;2023-03-14T03:06:07;2.65;;;1.15;;
11447;SDS011;43755;49.736;8.734;2023-03-14T03:08:09;4.45;;;1.00;;
11447;SDS011;43755;49.736;8.734;2023-03-14T03:10:11;1.92;;;1.05;;
11447;SDS011;43755;49.736;8.734;2023-03-14T03:12:13;2.15;;;1.10;;
11447;SDS011;43755;49.736;8.734;2023-03-14T03:14:15;3.33;;;1.33;;
11447;SDS011;43755;49.736;8.734;2023-03-14T03:16:16;2.83;;;1.33;;
11447;SDS011;43755;49.736;8.734;2023-03-14T03:18:19;2.65;;;1.10;;
11447;SDS011;43755;49.736;8.734;2023-03-14T03:20:20;2.17;;;1.33;;
11447;SDS011;43755;49.736;8.734;2023-03-14T03:22:22;2.50;;;1.17;;
11447;SDS011;43755;49.736;8.734;2023-03-14T03:24:23;3.75;;;1.30;;
11447;SDS011;43755;49.736;8.734;2023-03-14T03:26:25;1.73;;;1.05;;
11447;SDS011;43755;49.736;8.734;2023-03-14T03:28:26;2.67;;;1.35;;
11447;SDS011;43755;49.736;8.734;2023-03-14T03:30:27;4.72;;;1.48;;
11447;SDS011;43755;49.736;8.734;2023-03-14T03:32:29;2.47;;;1.10;;
11447;SDS011;43755;49.736;8.734;2023-03-14T03:34:32;2.78;;;1.27;;
11447;SDS011;43755;49.736;8.734;2023-03-14T03:36:33;2.90;;;1.15;;
11447;SDS011;43755;49.736;8.734;2023-03-14T03:38:35;2.88;;;1.20;;
11447;SDS011;43755;49.736;8.734;2023-03-14T03:40:36;4.05;;;1.20;;
11447;SDS011;43755;49.736;8.734;2023-03-14T03:42:38;2.15;;;1.10;;
11447;SDS011;43755;49.736;8.734;2023-03-14T03:44:39;3.22;;;1.27;;
11447;SDS011;43755;49.736;8.734;2023-03-14T03:46:41;4.38;;;1.75;;
11447;SDS011;43755;49.736;8.734;2023-03-14T03:48:42;2.22;;;1.40;;
11447;SDS011;43755;49.736;8.734;2023-03-14T03:50:45;7.88;;;1.48;;
11447;SDS011;43755;49.736;8.734;2023-03-14T03:52:47;4.15;;;1.80;;
11447;SDS011;43755;49.736;8.734;2023-03-14T03:54:49;1.60;;;1.30;;
11447;SDS011;43755;49.736;8.734;2023-03-14T03:56:50;4.45;;;1.10;;
11447;SDS011;43755;49.736;8.734;2023-03-14T03:58:51;3.85;;;1.30;;
11447;SDS011;43755;49.736;8.734;2023-03-14T04:00:53;4.70;;;1.42;;
11447;SDS011;43755;49.736;8.734;2023-03-14T04:02:55;2.20;;;1.10;;
11447;SDS011;43755;49.736;8.734;2023-03-14T04:04:56;3.83;;;1.38;;
11447;SDS011;43755;49.736;8.734;2023-03-14T04:06:59;4.60;;;1.52;;
11447;SDS011;43755;49.736;8.734;2023-03-14T04:09:00;4.55;;;1.30;;
11447;SDS011;43755;49.736;8.734;2023-03-14T04:11:02;3.15;;;1.00;;
11447;SDS011;43755;49.736;8.734;2023-03-14T04:13:04;3.03;;;1.20;;
11447;SDS011;43755;49.736;8.734;2023-03-14T04:15:06;3.30;;;1.02;;
11447;SDS011;43755;49.736;8.734;2023-03-14T04:17:08;3.70;;;1.23;;
11447;SDS011;43755;49.736;8.734;2023-03-14T04:19:10;3.55;;;1.20;;
11447;SDS011;43755;49.736;8.734;2023-03-14T04:21:11;3.15;;;1.23;;
11447;SDS011;43755;49.736;8.734;2023-03-14T04:23:14;3.63;;;1.35;;
11447;SDS011;43755;49.736;8.734;2023-03-14T04:25:15;3.92;;;1.50;;
11447;SDS011;43755;49.736;8.734;2023-03-14T04:27:19;4.18;;;1.27;;
11447;SDS011;43755;49.736;8.734;2023-03-14T04:29:21;2.83;;;1.55;;
11447;SDS011;43755;49.736;8.734;2023-03-14T04:31:22;3.03;;;1.20;;
11447;SDS011;43755;49.736;8.734;2023-03-14T04:33:24;2.28;;;1.27;;
11447;SDS011;43755;49.736;8.734;2023-03-14T04:35:25;3.88;;;1.67;;
11447;SDS011;43755;49.736;8.734;2023-03-14T04:37:26;2.83;;;1.23;;
11447;SDS011;43755;49.736;8.734;2023-03-14T04:39:29;3.47;;;1.30;;
11447;SDS011;43755;49.736;8.734;2023-03-14T04:41:31;3.22;;;1.10;;
11447;SDS011;43755;49.736;8.734;2023-03-14T04:43:32;2.72;;;1.27;;
11447;SDS011;43755;49.736;8.734;2023-03-14T04:45:34;3.95;;;0.93;;
11447;SDS011;43755;49.736;8.734;2023-03-14T04:47:35;3.80;;;1.20;;
11447;SDS011;43755;49.736;8.734;2023-03-14T04:49:37;3.53;;;1.30;;
11447;SDS011;43755;49.736;8.734;2023-03-14T04:51:38;2.88;;;1.15;;
11447;SDS011;43755;49.736;8.734;2023-03-14T04:53:40;1.95;;;1.10;;
11447;SDS011;43755;49.736;8.734;2023-03-14T04:55:42;1.83;;;1.27;;
11447;SDS011;43755;49.736;8.734;2023-03-14T04:57:48;2.58;;;1.30;;
11447;SDS011;43755;49.736;8.734;2023-03-14T04:59:49;5.30;;;1.30;;
11447;SDS011;43755;49.736;8.734;2023-03-14T05:01:51;1.42;;;1.08;;
11447;SDS011;43755;49.736;8.734;2023-03-14T05:03:52;2.70;;;1.05;;
11447;SDS011;43755;49.736;8.734;2023-03-14T05:05:53;1.40;;;1.25;;
11447;SDS011;43755;49.736;8.734;2023-03-14T05:07:55;3.20;;;1.35;;
11447;SDS011;43755;49.736;8.734;2023-03-14T05:09:56;2.15;;;0.82;;
11447;SDS011;43755;49.736;8.734;2023-03-14T05:11:59;2.47;;;1.10;;
11447;SDS011;43755;49.736;8.734;2023-03-14T05:14:01;3.08;;;1.23;;
11447;SDS011;43755;49.736;8.734;2023-03-14T05:16:05;2.70;;;1.15;;
11447;SDS011;43755;49.736;8.734;2023-03-14T05:18:08;5.40;;;1.38;;
11447;SDS011;43755;49.736;8.734;2023-03-14T05:20:10;1.73;;;1.10;;
11447;SDS011;43755;49.736;8.734;2023-03-14T05:22:13;2.58;;;1.20;;
11447;SDS011;43755;49.736;8.734;2023-03-14T05:24:14;1.73;;;0.95;;
11447;SDS011;43755;49.736;8.734;2023-03-14T05:26:15;4.25;;;1.23;;
11447;SDS011;43755;49.736;8.734;2023-03-14T05:28:18;1.65;;;1.02;;
11447;SDS011;43755;49.736;8.734;2023-03-14T05:30:20;4.13;;;1.13;;
11447;SDS011;43755;49.736;8.734;2023-03-14T05:32:21;2.75;;;1.20;;
11447;SDS011;43755;49.736;8.734;2023-03-14T05:34:23;1.23;;;1.13;;
11447;SDS011;43755;49.736;8.734;2023-03-14T05:36:24;2.67;;;1.20;;
11447;SDS011;43755;49.736;8.734;2023-03-14T05:38:26;2.97;;;1.02;;
11447;SDS011;43755;49.736;8.734;2023-03-14T05:40:27;3.78;;;1.02;;
11447;SDS011;43755;49.736;8.734;2023-03-14T05:42:28;3.25;;;1.10;;
11447;SDS011;43755;49.736;8.734;2023-03-14T05:44:31;1.90;;;1.00;;
11447;SDS011;43755;49.736;8.734;2023-03-14T05:46:32;2.38;;;1.02;;
11447;SDS011;43755;49.736;8.734;2023-03-14T05:48:34;3.00;;;1.10;;
11447;SDS011;43755;49.736;8.734;2023-03-14T05:50:35;2.88;;;1.65;;
11447;SDS011;43755;49.736;8.734;2023-03-14T05:52:37;2.28;;;1.08;;
11447;SDS011;43755;49.736;8.734;2023-03-14T05:54:38;2.95;;;1.10;;
11447;SDS011;43755;49.736;8.734;2023-03-14T05:56:40;3.58;;;0.93;;
11447;SDS011;43755;49.736;8.734;2023-03-14T05:58:41;1.70;;;1.10;;
11447;SDS011;43755;49.736;8.734;2023-03-14T06:00:44;2.67;;;1.10;;
11447;SDS011;43755;49.736;8.734;2023-03-14T06:02:45;2.45;;;1.05;;
11447;SDS011;43755;49.736;8.734;2023-03-14T06:04:47;2.55;;;1.10;;
11447;SDS011;43755;49.736;8.734;2023-03-14T06:06:48;1.80;;;1.02;;
11447;SDS011;43755;49.736;8.734;2023-03-14T06:08:49;1.30;;;1.20;;
11447;SDS011;43755;49.736;8.734;2023-03-14T06:10:51;1.42;;;1.05;;
11447;SDS011;43755;49.736;8.734;2023-03-14T06:12:52;2.00;;;1.00;;
11447;SDS011;43755;49.736;8.734;2023-03-14T06:14:54;5.20;;;1.40;;
11447;SDS011;43755;49.736;8.734;2023-03-14T06:16:57;1.85;;;0.90;;
11447;SDS011;43755;49.736;8.734;2023-03-14T06:18:58;3.20;;;1.25;;
11447;SDS011;43755;49.736;8.734;2023-03-14T06:21:00;3.05;;;1.30;;
11447;SDS011;43755;49.736;8.734;2023-03-14T06:23:01;2.90;;;1.00;;
11447;SDS011;43755;49.736;8.734;2023-03-14T06:25:03;3.00;;;1.10;;
11447;SDS011;43755;49.736;8.734;2023-03-14T06:27:05;1.67;;;0.93;;
11447;SDS011;43755;49.736;8.734;2023-03-14T06:29:06;2.33;;;0.90;;
11447;SDS011;43755;49.736;8.734;2023-03-14T06:31:07;2.90;;;0.85;;
11447;SDS011;43755;49.736;8.734;2023-03-14T06:33:10;3.05;;;1.05;;
11447;SDS011;43755;49.736;8.734;2023-03-14T06:35:11;2.08;;;1.00;;
11447;SDS011;43755;49.736;8.734;2023-03-14T06:37:13;3.38;;;0.77;;
11447;SDS011;43755;49.736;8.734;2023-03-14T06:39:14;2.80;;;1.05;;
11447;SDS011;43755;49.736;8.734;2023-03-14T06:41:16;2.63;;;1.00;;
11447;SDS011;43755;49.736;8.734;2023-03-14T06:43:17;2.22;;;1.00;;
11447;SDS011;43755;49.736;8.734;2023-03-14T06:45:18;3.72;;;1.40;;
11447;SDS011;43755;49.736;8.734;2023-03-14T06:47:20;2.53;;;1.15;;
11447;SDS011;43755;49.736;8.734;2023-03-14T06:49:23;2.45;;;1.02;;
11447;SDS011;43755;49.736;8.734;2023-03-14T06:51:24;4.10;;;1.50;;
11447;SDS011;43755;49.736;8.734;2023-03-14T06:53:25;3.22;;;1.58;;
11447;SDS011;43755;49.736;8.734;2023-03-14T06:55:27;1.55;;;0.82;;
11447;SDS011;43755;49.736;8.734;2023-03-14T06:57:28;4.03;;;1.63;;
11447;SDS011;43755;49.736;8.734;2023-03-14T06:59:30;3.85;;;1.17;;
11447;SDS011;43755;49.736;8.734;2023-03-14T07:01:31;3.38;;;1.10;;
11447;SDS011;43755;49.736;8.734;2023-03-14T07:03:34;3.67;;;1.40;;
11447;SDS011;43755;49.736;8.734;2023-03-14T07:05:37;3.40;;;0.93;;
11447;SDS011;43755;49.736;8.734;2023-03-14T07:07:40;2.63;;;1.02;;
11447;SDS011;43755;49.736;8.734;2023-03-14T07:09:41;2.58;;;1.13;;
11447;SDS011;43755;49.736;8.734;2023-03-14T07:11:43;2.35;;;1.33;;
11447;SDS011;43755;49.736;8.734;2023-03-14T07:13:44;2.28;;;1.00;;
11447;SDS011;43755;49.736;8.734;2023-03-14T07:15:46;2.05;;;1.38;;
11447;SDS011;43755;49.736;8.734;2023-03-14T07:17:47;4.10;;;1.10;;
11447;SDS011;43755;49.736;8.734;2023-03-14T07:19:49;3.42;;;1.20;;
11447;SDS011;43755;49.736;8.734;2023-03-14T07:21:51;1.75;;;0.95;;
11447;SDS011;43755;49.736;8.734;2023-03-14T07:23:53;3.03;;;1.08;;
11447;SDS011;43755;49.736;8.734;2023-03-14T07:25:55;3.33;;;1.20;;
11447;SDS011;43755;49.736;8.734;2023-03-14T07:27:56;3.67;;;1.17;;
11447;SDS011;43755;49.736;8.734;2023-03-14T07:29:57;2.70;;;0.98;;
11447;SDS011;43755;49.736;8.734;2023-03-14T07:31:59;3.58;;;1.13;;
11447;SDS011;43755;49.736;8.734;2023-03-14T07:34:00;2.28;;;1.02;;
11447;SDS011;43755;49.736;8.734;2023-03-14T07:36:02;2.83;;;1.00;;
11447;SDS011;43755;49.736;8.734;2023-03-14T07:38:05;2.60;;;1.25;;
11447;SDS011;43755;49.736;8.734;2023-03-14T07:40:08;3.55;;;1.25;;
11447;SDS011;43755;49.736;8.734;2023-03-14T07:42:12;2.10;;;1.13;;
11447;SDS011;43755;49.736;8.734;2023-03-14T07:44:13;2.72;;;1.10;;
11447;SDS011;43755;49.736;8.734;2023-03-14T07:46:15;2.45;;;1.30;;
11447;SDS011;43755;49.736;8.734;2023-03-14T07:48:17;5.15;;;1.23;;
11447;SDS011;43755;49.736;8.734;2023-03-14T07:50:18;3.30;;;1.23;;
11447;SDS011;43755;49.736;8.734;2023-03-14T07:52:20;1.40;;;0.90;;
11447;SDS011;43755;49.736;8.734;2023-03-14T07:54:23;4.78;;;1.10;;
11447;SDS011;43755;49.736;8.734;2023-03-14T07:56:24;4.07;;;1.17;;
11447;SDS011;43755;49.736;8.734;2023-03-14T07:58:26;2.53;;;1.08;;
11447;SDS011;43755;49.736;8.734;2023-03-14T08:00:27;3.30;;;1.10;;
11447;SDS011;43755;49.736;8.734;2023-03-14T08:02:29;2.33;;;1.05;;
11447;SDS011;43755;49.736;8.734;2023-03-14T08:04:30;3.85;;;1.33;;
11447;SDS011;43755;49.736;8.734;2023-03-14T08:06:32;2.90;;;1.00;;
11447;SDS011;43755;49.736;8.734;2023-03-14T08:08:33;3.17;;;1.23;;
11447;SDS011;43755;49.736;8.734;2023-03-14T08:10:36;0.73;;;0.73;;
11447;SDS011;43755;49.736;8.734;2023-03-14T08:12:37;2.63;;;1.20;;
11447;SDS011;43755;49.736;8.734;2023-03-14T08:14:39;2.25;;;0.90;;
11447;SDS011;43755;49.736;8.734;2023-03-14T08:16:40;2.47;;;1.00;;
11447;SDS011;43755;49.736;8.734;2023-03-14T08:18:42;2.83;;;1.10;;
11447;SDS011;43755;49.736;8.734;2023-03-14T08:20:43;2.55;;;1.05;;
11447;SDS011;43755;49.736;8.734;2023-03-14T08:22:44;2.42;;;0.93;;
11447;SDS011;43755;49.736;8.734;2023-03-14T08:24:46;1.65;;;1.00;;
11447;SDS011;43755;49.736;8.734;2023-03-14T08:26:48;2.13;;;1.08;;
11447;SDS011;43755;49.736;8.734;2023-03-14T08:28:50;2.15;;;0.80;;
11447;SDS011;43755;49.736;8.734;2023-03-14T08:30:51;1.90;;;0.77;;
11447;SDS011;43755;49.736;8.734;2023-03-14T08:32:56;2.80;;;0.90;;
11447;SDS011;43755;49.736;8.734;2023-03-14T08:34:58;1.60;;;0.82;;
11447;SDS011;43755;49.736;8.734;2023-03-14T08:36:59;2.08;;;0.82;;
11447;SDS011;43755;49.736;8.734;2023-03-14T08:39:00;1.30;;;0.80;;
11447;SDS011;43755;49.736;8.734;2023-03-14T08:41:04;3.90;;;0.95;;
11447;SDS011;43755;49.736;8.734;2023-03-14T08:43:07;2.25;;;0.88;;
11447;SDS011;43755;49.736;8.734;2023-03-14T08:45:10;1.48;;;0.73;;
11447;SDS011;43755;49.736;8.734;2023-03-14T08:47:13;1.85;;;0.90;;
11447;SDS011;43755;49.736;8.734;2023-03-14T08:49:14;1.77;;;1.00;;
11447;SDS011;43755;49.736;8.734;2023-03-14T08:51:15;1.00;;;0.70;;
11447;SDS011;43755;49.736;8.734;2023-03-14T08:53:17;1.85;;;0.82;;
11447;SDS011;43755;49.736;8.734;2023-03-14T08:55:20;1.80;;;0.82;;
11447;SDS011;43755;49.736;8.734;2023-03-14T08:57:22;1.75;;;0.85;;
11447;SDS011;43755;49.736;8.734;2023-03-14T08:59:28;1.95;;;1.05;;
11447;SDS011;43755;49.736;8.734;2023-03-14T09:01:30;2.15;;;0.90;;
11447;SDS011;43755;49.736;8.734;2023-03-14T09:03:31;2.40;;;0.80;;
11447;SDS011;43755;49.736;8.734;2023-03-14T09:05:33;2.17;;;1.20;;
11447;SDS011;43755;49.736;8.734;2023-03-14T09:07:34;2.17;;;0.95;;
11447;SDS011;43755;49.736;8.734;2023-03-14T09:09:36;1.70;;;1.15;;
11447;SDS011;43755;49.736;8.734;2023-03-14T09:11:37;1.80;;;1.00;;
11447;SDS011;43755;49.736;8.734;2023-03-14T09:13:39;1.00;;;0.77;;
11447;SDS011;43755;49.736;8.734;2023-03-14T09:15:42;0.80;;;0.80;;
11447;SDS011;43755;49.736;8.734;2023-03-14T09:17:44;2.15;;;1.13;;
11447;SDS011;43755;49.736;8.734;2023-03-14T09:19:45;2.63;;;0.85;;
11447;SDS011;43755;49.736;8.734;2023-03-14T09:21:46;1.95;;;0.80;;
11447;SDS011;43755;49.736;8.734;2023-03-14T09:23:48;1.00;;;0.70;;
11447;SDS011;43755;49.736;8.734;2023-03-14T09:25:53;0.88;;;0.70;;
11447;SDS011;43755;49.736;8.734;2023-03-14T09:27:55;0.98;;;0.68;;
11447;SDS011;43755;49.736;8.734;2023-03-14T09:29:57;1.75;;;0.75;;
11447;SDS011;43755;49.736;8.734;2023-03-14T09:31:59;2.78;;;0.80;;
11447;SDS011;43755;49.736;8.734;2023-03-14T09:34:01;2.58;;;0.98;;
11447;SDS011;43755;49.736;8.734;2023-03-14T09:36:02;1.88;;;0.82;;
11447;SDS011;43755;49.736;8.734;2023-03-14T09:38:04;0.98;;;0.73;;
11447;SDS011;43755;49.736;8.734;2023-03-14T09:40:06;1.30;;;0.70;;
11447;SDS011;43755;49.736;8.734;2023-03-14T09:42:13;2.58;;;0.63;;
11447;SDS011;43755;49.736;8.734;2023-03-14T09:44:19;0.52;;;0.52;;
11447;SDS011;43755;49.736;8.734;2023-03-14T09:46:25;0.57;;;0.55;;
11447;SDS011;43755;49.736;8.734;2023-03-14T09:48:29;1.75;;;0.90;;
11447;SDS011;43755;49.736;8.734;2023-03-14T09:50:37;1.23;;;0.70;;
11447;SDS011;43755;49.736;8.734;2023-03-14T09:52:44;1.17;;;0.40;;
11447;SDS011;43755;49.736;8.734;2023-03-14T09:54:49;1.42;;;0.60;;
11447;SDS011;43755;49.736;8.734;2023-03-14T09:56:52;0.30;;;0.30;;
11447;SDS011;43755;49.736;8.734;2023-03-14T09:58:56;1.35;;;0.65;;
11447;SDS011;43755;49.736;8.734;2023-03-14T10:00:59;0.98;;;0.60;;
11447;SDS011;43755;49.736;8.734;2023-03-14T10:03:09;0.55;;;0.52;;
11447;SDS011;43755;49.736;8.734;2023-03-14T10:05:24;1.23;;;0.50;;
11447;SDS011;43755;49.736;8.734;2023-03-14T10:07:28;0.50;;;0.47;;
11447;SDS011;43755;49.736;8.734;2023-03-14T10:09:31;1.55;;;0.55;;
11447;SDS011;43755;49.736;8.734;2023-03-14T10:11:35;0.77;;;0.40;;
11447;SDS011;43755;49.736;8.734;2023-03-14T10:13:39;1.05;;;0.63;;
11447;SDS011;43755;49.736;8.734;2023-03-14T10:15:51;0.73;;;0.50;;
11447;SDS011;43755;49.736;8.734;2023-03-14T10:17:54;0.32;;;0.32;;
11447;SDS011;43755;49.736;8.734;2023-03-14T10:19:56;0.93;;;0.50;;
11447;SDS011;43755;49.736;8.734;2023-03-14T10:22:00;1.67;;;0.63;;
11447;SDS011;43755;49.736;8.734;2023-03-14T10:24:07;0.98;;;0.40;;
11447;SDS011;43755;49.736;8.734;2023-03-14T10:26:23;0.43;;;0.40;;
11447;SDS011;43755;49.736;8.734;2023-03-14T10:28:28;1.00;;;0.60;;
11447;SDS011;43755;49.736;8.734;2023-03-14T10:30:37;1.38;;;0.30;;
11447;SDS011;43755;49.736;8.734;2023-03-14T10:32:44;0.73;;;0.40;;
11447;SDS011;43755;49.736;8.734;2023-03-14T10:34:58;0.43;;;0.43;;
11447;SDS011;43755;49.736;8.734;2023-03-14T10:37:16;0.57;;;0.35;;
11447;SDS011;43755;49.736;8.734;2023-03-14T10:39:26;0.90;;;0.50;;
11447;SDS011;43755;49.736;8.734;2023-03-14T10:41:31;0.63;;;0.30;;
11447;SDS011;43755;49.736;8.734;2023-03-14T10:43:34;1.02;;;0.63;;
11447;SDS011;43755;49.736;8.734;2023-03-14T10:45:39;0.52;;;0.45;;
11447;SDS011;43755;49.736;8.734;2023-03-14T10:47:47;1.05;;;0.40;;
11447;SDS011;43755;49.736;8.734;2023-03-14T10:49:49;1.10;;;0.40;;
11447;SDS011;43755;49.736;8.734;2023-03-14T10:51:51;0.25;;;0.25;;
11447;SDS011;43755;49.736;8.734;2023-03-14T10:53:57;1.20;;;0.65;;
11447;SDS011;43755;49.736;8.734;2023-03-14T10:55:59;1.65;;;0.52;;
11447;SDS011;43755;49.736;8.734;2023-03-14T10:58:04;0.68;;;0.50;;
11447;SDS011;43755;49.736;8.734;2023-03-14T11:00:05;0.65;;;0.50;;
11447;SDS011;43755;49.736;8.734;2023-03-14T11:02:20;0.75;;;0.50;;
11447;SDS011;43755;49.736;8.734;2023-03-14T11:04:41;0.85;;;0.50;;
11447;SDS011;43755;49.736;8.734;2023-03-14T11:06:56;0.75;;;0.68;;
11447;SDS011;43755;49.736;8.734;2023-03-14T11:09:07;0.50;;;0.50;;
11447;SDS011;43755;49.736;8.734;2023-03-14T11:11:17;0.45;;;0.40;;
11447;SDS011;43755;49.736;8.734;2023-03-14T11:13:24;1.85;;;0.60;;
11447;SDS011;43755;49.736;8.734;2023-03-14T11:15:27;1.10;;;0.30;;
11447;SDS011;43755;49.736;8.734;2023-03-14T11:17:34;0.50;;;0.45;;
11447;SDS011;43755;49.736;8.734;2023-03-14T11:19:43;0.73;;;0.40;;
11447;SDS011;43755;49.736;8.734;2023-03-14T11:21:55;1.98;;;0.50;;
11447;SDS011;43755;49.736;8.734;2023-03-14T11:24:04;1.08;;;0.70;;
11447;SDS011;43755;49.736;8.734;2023-03-14T11:26:24;0.47;;;0.47;;
11447;SDS011;43755;49.736;8.734;2023-03-14T11:28:34;0.82;;;0.80;;
11447;SDS011;43755;49.736;8.734;2023-03-14T11:30:39;1.02;;;0.70;;
11447;SDS011;43755;49.736;8.734;2023-03-14T11:32:46;0.95;;;0.82;;
11447;SDS011;43755;49.736;8.734;2023-03-14T11:34:54;1.50;;;0.80;;
11447;SDS011;43755;49.736;8.734;2023-03-14T11:36:57;0.70;;;0.60;;
11447;SDS011;43755;49.736;8.734;2023-03-14T11:39:01;0.85;;;0.60;;
11447;SDS011;43755;49.736;8.734;2023-03-14T11:41:08;0.65;;;0.65;;
11447;SDS011;43755;49.736;8.734;2023-03-14T11:43:14;0.57;;;0.57;;
11447;SDS011;43755;49.736;8.734;2023-03-14T11:45:19;1.00;;;0.90;;
11447;SDS011;43755;49.736;8.734;2023-03-14T11:47:25;0.88;;;0.88;;
11447;SDS011;43755;49.736;8.734;2023-03-14T11:49:32;0.60;;;0.60;;
11447;SDS011;43755;49.736;8.734;2023-03-14T11:51:39;0.73;;;0.73;;
11447;SDS011;43755;49.736;8.734;2023-03-14T11:53:45;0.85;;;0.75;;
11447;SDS011;43755;49.736;8.734;2023-03-14T11:55:53;0.73;;;0.70;;
11447;SDS011;43755;49.736;8.734;2023-03-14T11:57:57;1.38;;;0.80;;
11447;SDS011;43755;49.736;8.734;2023-03-14T12:00:02;2.08;;;1.00;;
11447;SDS011;43755;49.736;8.734;2023-03-14T12:02:13;0.90;;;0.90;;
11447;SDS011;43755;49.736;8.734;2023-03-14T12:04:29;1.63;;;1.08;;
11447;SDS011;43755;49.736;8.734;2023-03-14T12:06:44;0.90;;;0.90;;
11447;SDS011;43755;49.736;8.734;2023-03-14T12:08:48;1.13;;;1.00;;
11447;SDS011;43755;49.736;8.734;2023-03-14T12:10:51;1.15;;;1.05;;
11447;SDS011;43755;49.736;8.734;2023-03-14T12:12:56;0.98;;;0.98;;
11447;SDS011;43755;49.736;8.734;2023-03-14T12:14:58;1.23;;;1.20;;
11447;SDS011;43755;49.736;8.734;2023-03-14T12:17:04;1.20;;;1.10;;
11447;SDS011;43755;49.736;8.734;2023-03-14T12:21:43;1.17;;;1.00;;
11447;SDS011;43755;49.736;8.734;2023-03-14T12:23:50;0.73;;;0.70;;
11447;SDS011;43755;49.736;8.734;2023-03-14T12:26:06;1.67;;;0.75;;